sensor_id;sensor_type;location;lat;lon;timestamp;temperature;humidity
37842;DHT22;23682;53.508;10.476;2022-07-24T00:01:53;13.30;99.90
37842;DHT22;23682;53.508;10.476;2022-07-24T00:04:20;13.30;99.90
37842;DHT22;23682;53.508;10.476;2022-07-24T00:06:47;13.30;99.90
37842;DHT22;23682;53.508;10.476;2022-07-24T00:09:14;13.20;99.90
37842;DHT22;23682;53.508;10.476;2022-07-24T00:11:41;13.20;99.90
37842;DHT22;23682;53.508;10.476;2022-07-24T00:14:08;13.30;99.90
37842;DHT22;23682;53.508;10.476;2022-07-24T00:16:36;13.20;99.90
37842;DHT22;23682;53.508;10.476;2022-07-24T00:19:03;13.20;99.90
37842;DHT22;23682;53.508;10.476;2022-07-24T00:21:30;13.20;99.90
37842;DHT22;23682;53.508;10.476;2022-07-24T00:23:57;13.10;99.90
37842;DHT22;23682;53.508;10.476;2022-07-24T00:26:24;13.20;99.90
37842;DHT22;23682;53.508;10.476;2022-07-24T00:28:51;13.10;99.90
37842;DHT22;23682;53.508;10.476;2022-07-24T00:31:18;13.10;99.90
37842;DHT22;23682;53.508;10.476;2022-07-24T00:33:45;13.00;99.90
37842;DHT22;23682;53.508;10.476;2022-07-24T00:36:15;12.90;99.90
37842;DHT22;23682;53.508;10.476;2022-07-24T00:38:42;12.90;99.90
37842;DHT22;23682;53.508;10.476;2022-07-24T00:41:09;12.90;99.90
37842;DHT22;23682;53.508;10.476;2022-07-24T00:43:59;12.90;99.90
37842;DHT22;23682;53.508;10.476;2022-07-24T00:46:27;12.80;99.90
37842;DHT22;23682;53.508;10.476;2022-07-24T00:48:54;12.80;99.90
37842;DHT22;23682;53.508;10.476;2022-07-24T00:51:22;12.80;99.90
37842;DHT22;23682;53.508;10.476;2022-07-24T00:53:49;12.80;99.90
37842;DHT22;23682;53.508;10.476;2022-07-24T00:56:16;12.80;99.90
37842;DHT22;23682;53.508;10.476;2022-07-24T00:58:44;12.80;99.90
37842;DHT22;23682;53.508;10.476;2022-07-24T01:01:11;12.70;99.90
37842;DHT22;23682;53.508;10.476;2022-07-24T01:03:38;12.80;99.90
37842;DHT22;23682;53.508;10.476;2022-07-24T01:06:05;12.70;99.90
37842;DHT22;23682;53.508;10.476;2022-07-24T01:08:33;12.70;99.90
37842;DHT22;23682;53.508;10.476;2022-07-24T01:11:03;12.70;99.90
37842;DHT22;23682;53.508;10.476;2022-07-24T01:13:30;12.70;99.90
37842;DHT22;23682;53.508;10.476;2022-07-24T01:15:59;12.60;99.90
37842;DHT22;23682;53.508;10.476;2022-07-24T01:18:26;12.60;99.90
37842;DHT22;23682;53.508;10.476;2022-07-24T01:20:53;12.60;99.90
37842;DHT22;23682;53.508;10.476;2022-07-24T01:23:19;12.50;99.90
37842;DHT22;23682;53.508;10.476;2022-07-24T01:25:46;12.50;99.90
37842;DHT22;23682;53.508;10.476;2022-07-24T01:28:13;12.50;99.90
37842;DHT22;23682;53.508;10.476;2022-07-24T01:30:41;12.40;99.90
37842;DHT22;23682;53.508;10.476;2022-07-24T01:33:09;12.50;99.90
37842;DHT22;23682;53.508;10.476;2022-07-24T01:35:35;12.40;99.90
37842;DHT22;23682;53.508;10.476;2022-07-24T01:38:03;12.50;99.90
37842;DHT22;23682;53.508;10.476;2022-07-24T01:40:29;12.40;99.90
37842;DHT22;23682;53.508;10.476;2022-07-24T01:42:56;12.40;99.90
37842;DHT22;23682;53.508;10.476;2022-07-24T01:45:23;12.40;99.90
37842;DHT22;23682;53.508;10.476;2022-07-24T01:47:50;12.40;99.90
37842;DHT22;23682;53.508;10.476;2022-07-24T01:50:17;12.40;99.90
37842;DHT22;23682;53.508;10.476;2022-07-24T01:52:44;12.40;99.90
37842;DHT22;23682;53.508;10.476;2022-07-24T01:55:11;12.40;99.90
37842;DHT22;23682;53.508;10.476;2022-07-24T01:57:38;12.40;99.90
37842;DHT22;23682;53.508;10.476;2022-07-24T02:00:07;12.30;99.90
37842;DHT22;23682;53.508;10.476;2022-07-24T02:02:41;12.30;99.90
37842;DHT22;23682;53.508;10.476;2022-07-24T02:05:09;12.30;99.90
37842;DHT22;23682;53.508;10.476;2022-07-24T02:07:37;12.20;99.90
37842;DHT22;23682;53.508;10.476;2022-07-24T02:10:04;12.30;99.90
37842;DHT22;23682;53.508;10.476;2022-07-24T02:12:31;12.30;99.90
37842;DHT22;23682;53.508;10.476;2022-07-24T02:14:58;12.30;99.90
37842;DHT22;23682;53.508;10.476;2022-07-24T02:17:25;12.30;99.90
37842;DHT22;23682;53.508;10.476;2022-07-24T02:19:52;12.20;99.90
37842;DHT22;23682;53.508;10.476;2022-07-24T02:22:19;12.20;99.90
37842;DHT22;23682;53.508;10.476;2022-07-24T02:24:45;12.20;99.90
37842;DHT22;23682;53.508;10.476;2022-07-24T02:27:12;12.10;99.90
37842;DHT22;23682;53.508;10.476;2022-07-24T02:29:39;12.10;99.90
37842;DHT22;23682;53.508;10.476;2022-07-24T02:32:06;12.10;99.90
37842;DHT22;23682;53.508;10.476;2022-07-24T02:34:34;12.00;99.90
37842;DHT22;23682;53.508;10.476;2022-07-24T02:37:01;12.00;99.90
37842;DHT22;23682;53.508;10.476;2022-07-24T02:39:27;12.00;99.90
37842;DHT22;23682;53.508;10.476;2022-07-24T02:41:54;12.00;99.90
37842;DHT22;23682;53.508;10.476;2022-07-24T02:44:21;12.00;99.90
37842;DHT22;23682;53.508;10.476;2022-07-24T02:46:48;12.00;99.90
37842;DHT22;23682;53.508;10.476;2022-07-24T02:49:15;12.00;99.90
37842;DHT22;23682;53.508;10.476;2022-07-24T02:51:42;12.00;99.90
37842;DHT22;23682;53.508;10.476;2022-07-24T02:54:10;12.00;99.90
37842;DHT22;23682;53.508;10.476;2022-07-24T02:56:37;12.00;99.90
37842;DHT22;23682;53.508;10.476;2022-07-24T02:59:04;12.00;99.90
37842;DHT22;23682;53.508;10.476;2022-07-24T03:01:32;11.90;99.90
37842;DHT22;23682;53.508;10.476;2022-07-24T03:03:58;11.90;99.90
37842;DHT22;23682;53.508;10.476;2022-07-24T03:06:26;11.90;99.90
37842;DHT22;23682;53.508;10.476;2022-07-24T03:08:52;11.90;99.90
37842;DHT22;23682;53.508;10.476;2022-07-24T03:11:19;11.90;99.90
37842;DHT22;23682;53.508;10.476;2022-07-24T03:13:46;12.00;99.90
37842;DHT22;23682;53.508;10.476;2022-07-24T03:16:13;11.90;99.90
37842;DHT22;23682;53.508;10.476;2022-07-24T03:18:40;11.80;99.90
37842;DHT22;23682;53.508;10.476;2022-07-24T03:21:07;11.90;99.90
37842;DHT22;23682;53.508;10.476;2022-07-24T03:23:54;11.90;99.90
37842;DHT22;23682;53.508;10.476;2022-07-24T03:26:21;11.80;99.90
37842;DHT22;23682;53.508;10.476;2022-07-24T03:28:50;11.80;99.90
37842;DHT22;23682;53.508;10.476;2022-07-24T03:31:17;11.80;99.90
37842;DHT22;23682;53.508;10.476;2022-07-24T03:33:44;11.80;99.90
37842;DHT22;23682;53.508;10.476;2022-07-24T03:36:11;11.80;99.90
37842;DHT22;23682;53.508;10.476;2022-07-24T03:38:37;11.90;99.90
37842;DHT22;23682;53.508;10.476;2022-07-24T03:41:04;11.90;99.90
37842;DHT22;23682;53.508;10.476;2022-07-24T03:43:31;11.90;99.90
37842;DHT22;23682;53.508;10.476;2022-07-24T03:45:58;11.80;99.90
37842;DHT22;23682;53.508;10.476;2022-07-24T03:48:25;11.90;99.90
37842;DHT22;23682;53.508;10.476;2022-07-24T03:50:51;11.90;99.90
37842;DHT22;23682;53.508;10.476;2022-07-24T03:53:18;11.90;99.90
37842;DHT22;23682;53.508;10.476;2022-07-24T03:55:45;11.90;99.90
37842;DHT22;23682;53.508;10.476;2022-07-24T03:58:12;11.90;99.90
37842;DHT22;23682;53.508;10.476;2022-07-24T04:00:39;11.90;99.90
37842;DHT22;23682;53.508;10.476;2022-07-24T04:03:06;11.90;99.90
37842;DHT22;23682;53.508;10.476;2022-07-24T04:05:33;11.90;99.90
37842;DHT22;23682;53.508;10.476;2022-07-24T04:07:59;11.90;99.90
37842;DHT22;23682;53.508;10.476;2022-07-24T04:10:26;12.00;99.90
37842;DHT22;23682;53.508;10.476;2022-07-24T04:12:53;12.00;99.90
37842;DHT22;23682;53.508;10.476;2022-07-24T04:15:20;12.10;99.90
37842;DHT22;23682;53.508;10.476;2022-07-24T04:17:47;12.20;99.90
37842;DHT22;23682;53.508;10.476;2022-07-24T04:20:14;12.20;99.90
37842;DHT22;23682;53.508;10.476;2022-07-24T04:22:41;12.20;99.90
37842;DHT22;23682;53.508;10.476;2022-07-24T04:25:08;12.30;99.90
37842;DHT22;23682;53.508;10.476;2022-07-24T04:27:35;12.30;99.90
37842;DHT22;23682;53.508;10.476;2022-07-24T04:30:03;12.30;99.90
37842;DHT22;23682;53.508;10.476;2022-07-24T04:32:30;12.40;99.90
37842;DHT22;23682;53.508;10.476;2022-07-24T04:34:57;12.40;99.90
37842;DHT22;23682;53.508;10.476;2022-07-24T04:37:25;12.50;99.90
37842;DHT22;23682;53.508;10.476;2022-07-24T04:39:51;12.50;99.90
37842;DHT22;23682;53.508;10.476;2022-07-24T04:42:18;12.50;99.90
37842;DHT22;23682;53.508;10.476;2022-07-24T04:44:45;12.60;99.90
37842;DHT22;23682;53.508;10.476;2022-07-24T04:47:12;12.60;99.90
37842;DHT22;23682;53.508;10.476;2022-07-24T04:49:39;12.70;99.90
37842;DHT22;23682;53.508;10.476;2022-07-24T04:52:06;12.80;99.90
37842;DHT22;23682;53.508;10.476;2022-07-24T04:54:32;12.90;99.90
37842;DHT22;23682;53.508;10.476;2022-07-24T04:56:59;13.10;99.90
37842;DHT22;23682;53.508;10.476;2022-07-24T04:59:26;13.30;99.90
37842;DHT22;23682;53.508;10.476;2022-07-24T05:01:53;13.60;99.90
37842;DHT22;23682;53.508;10.476;2022-07-24T05:04:26;13.90;99.90
37842;DHT22;23682;53.508;10.476;2022-07-24T05:06:53;14.30;99.90
37842;DHT22;23682;53.508;10.476;2022-07-24T05:09:20;14.40;99.90
37842;DHT22;23682;53.508;10.476;2022-07-24T05:11:47;14.60;99.90
37842;DHT22;23682;53.508;10.476;2022-07-24T05:14:14;14.70;99.90
37842;DHT22;23682;53.508;10.476;2022-07-24T05:16:40;14.90;99.90
37842;DHT22;23682;53.508;10.476;2022-07-24T05:19:08;15.10;99.90
37842;DHT22;23682;53.508;10.476;2022-07-24T05:21:34;15.20;99.90
37842;DHT22;23682;53.508;10.476;2022-07-24T05:24:01;15.30;99.90
37842;DHT22;23682;53.508;10.476;2022-07-24T05:26:29;15.40;99.90
37842;DHT22;23682;53.508;10.476;2022-07-24T05:28:58;15.50;99.90
37842;DHT22;23682;53.508;10.476;2022-07-24T05:31:26;15.70;99.90
37842;DHT22;23682;53.508;10.476;2022-07-24T05:33:53;15.80;99.90
37842;DHT22;23682;53.508;10.476;2022-07-24T05:36:20;16.00;99.90
37842;DHT22;23682;53.508;10.476;2022-07-24T05:38:47;16.20;99.90
37842;DHT22;23682;53.508;10.476;2022-07-24T05:41:14;16.50;99.90
37842;DHT22;23682;53.508;10.476;2022-07-24T05:43:42;16.80;99.90
37842;DHT22;23682;53.508;10.476;2022-07-24T05:46:09;17.10;99.90
37842;DHT22;23682;53.508;10.476;2022-07-24T05:48:43;17.40;99.90
37842;DHT22;23682;53.508;10.476;2022-07-24T05:51:10;17.60;99.90
37842;DHT22;23682;53.508;10.476;2022-07-24T05:53:37;17.90;99.90
37842;DHT22;23682;53.508;10.476;2022-07-24T05:56:05;18.00;99.90
37842;DHT22;23682;53.508;10.476;2022-07-24T05:58:32;18.20;99.90
37842;DHT22;23682;53.508;10.476;2022-07-24T06:00:58;18.50;99.90
37842;DHT22;23682;53.508;10.476;2022-07-24T06:03:26;18.60;99.90
37842;DHT22;23682;53.508;10.476;2022-07-24T06:05:53;18.70;99.90
37842;DHT22;23682;53.508;10.476;2022-07-24T06:08:20;18.80;99.90
37842;DHT22;23682;53.508;10.476;2022-07-24T06:10:47;19.10;99.90
37842;DHT22;23682;53.508;10.476;2022-07-24T06:13:15;19.40;99.90
37842;DHT22;23682;53.508;10.476;2022-07-24T06:15:42;19.80;99.90
37842;DHT22;23682;53.508;10.476;2022-07-24T06:18:08;20.20;99.90
37842;DHT22;23682;53.508;10.476;2022-07-24T06:20:35;20.60;99.40
37842;DHT22;23682;53.508;10.476;2022-07-24T06:23:02;20.90;99.10
37842;DHT22;23682;53.508;10.476;2022-07-24T06:25:29;21.10;98.90
37842;DHT22;23682;53.508;10.476;2022-07-24T06:27:56;21.50;98.20
37842;DHT22;23682;53.508;10.476;2022-07-24T06:30:26;21.80;97.60
37842;DHT22;23682;53.508;10.476;2022-07-24T06:32:55;21.90;97.30
37842;DHT22;23682;53.508;10.476;2022-07-24T06:35:23;22.10;97.20
37842;DHT22;23682;53.508;10.476;2022-07-24T06:37:50;22.40;96.90
37842;DHT22;23682;53.508;10.476;2022-07-24T06:40:18;22.50;96.90
37842;DHT22;23682;53.508;10.476;2022-07-24T06:42:46;22.80;96.50
37842;DHT22;23682;53.508;10.476;2022-07-24T06:45:14;22.70;95.90
37842;DHT22;23682;53.508;10.476;2022-07-24T06:47:41;22.80;95.70
37842;DHT22;23682;53.508;10.476;2022-07-24T06:50:10;22.80;95.80
37842;DHT22;23682;53.508;10.476;2022-07-24T06:52:37;22.90;96.00
37842;DHT22;23682;53.508;10.476;2022-07-24T06:55:05;22.70;95.60
37842;DHT22;23682;53.508;10.476;2022-07-24T06:57:33;22.40;96.00
37842;DHT22;23682;53.508;10.476;2022-07-24T07:00:00;22.10;96.20
37842;DHT22;23682;53.508;10.476;2022-07-24T07:02:27;22.00;96.80
37842;DHT22;23682;53.508;10.476;2022-07-24T07:04:53;21.80;96.60
37842;DHT22;23682;53.508;10.476;2022-07-24T07:07:20;21.60;96.90
37842;DHT22;23682;53.508;10.476;2022-07-24T07:09:47;21.50;97.10
37842;DHT22;23682;53.508;10.476;2022-07-24T07:12:14;21.30;97.40
37842;DHT22;23682;53.508;10.476;2022-07-24T07:14:41;21.40;97.40
37842;DHT22;23682;53.508;10.476;2022-07-24T07:17:08;21.40;97.50
37842;DHT22;23682;53.508;10.476;2022-07-24T07:19:34;21.40;97.40
37842;DHT22;23682;53.508;10.476;2022-07-24T07:22:01;21.30;97.50
37842;DHT22;23682;53.508;10.476;2022-07-24T07:24:28;21.20;97.40
37842;DHT22;23682;53.508;10.476;2022-07-24T07:26:55;21.30;97.60
37842;DHT22;23682;53.508;10.476;2022-07-24T07:29:21;21.40;98.20
37842;DHT22;23682;53.508;10.476;2022-07-24T07:31:55;21.40;97.80
37842;DHT22;23682;53.508;10.476;2022-07-24T07:34:22;21.50;98.00
37842;DHT22;23682;53.508;10.476;2022-07-24T07:36:49;21.60;97.90
37842;DHT22;23682;53.508;10.476;2022-07-24T07:39:16;21.70;97.80
37842;DHT22;23682;53.508;10.476;2022-07-24T07:41:42;21.80;97.70
37842;DHT22;23682;53.508;10.476;2022-07-24T07:44:09;21.80;97.60
37842;DHT22;23682;53.508;10.476;2022-07-24T07:46:36;21.90;97.70
37842;DHT22;23682;53.508;10.476;2022-07-24T07:49:06;22.00;97.60
37842;DHT22;23682;53.508;10.476;2022-07-24T07:51:34;22.00;97.80
37842;DHT22;23682;53.508;10.476;2022-07-24T07:54:01;21.90;97.60
37842;DHT22;23682;53.508;10.476;2022-07-24T07:56:28;22.00;97.80
37842;DHT22;23682;53.508;10.476;2022-07-24T07:58:57;22.10;97.70
37842;DHT22;23682;53.508;10.476;2022-07-24T08:01:27;22.10;97.70
37842;DHT22;23682;53.508;10.476;2022-07-24T08:03:56;22.10;97.30
37842;DHT22;23682;53.508;10.476;2022-07-24T08:06:23;22.20;97.30
37842;DHT22;23682;53.508;10.476;2022-07-24T08:08:51;22.20;97.40
37842;DHT22;23682;53.508;10.476;2022-07-24T08:11:18;22.20;97.10
37842;DHT22;23682;53.508;10.476;2022-07-24T08:13:45;22.30;97.40
37842;DHT22;23682;53.508;10.476;2022-07-24T08:16:12;22.30;97.50
37842;DHT22;23682;53.508;10.476;2022-07-24T08:18:39;22.40;97.30
37842;DHT22;23682;53.508;10.476;2022-07-24T08:21:06;22.40;97.10
37842;DHT22;23682;53.508;10.476;2022-07-24T08:23:33;22.50;96.90
37842;DHT22;23682;53.508;10.476;2022-07-24T08:26:00;22.50;96.80
37842;DHT22;23682;53.508;10.476;2022-07-24T08:28:26;22.60;96.80
37842;DHT22;23682;53.508;10.476;2022-07-24T08:30:53;22.60;96.90
37842;DHT22;23682;53.508;10.476;2022-07-24T08:33:21;22.70;96.50
37842;DHT22;23682;53.508;10.476;2022-07-24T08:35:48;22.80;96.70
37842;DHT22;23682;53.508;10.476;2022-07-24T08:38:15;23.00;96.70
37842;DHT22;23682;53.508;10.476;2022-07-24T08:40:42;23.10;96.40
37842;DHT22;23682;53.508;10.476;2022-07-24T08:43:09;23.00;96.00
37842;DHT22;23682;53.508;10.476;2022-07-24T08:45:38;23.10;96.40
37842;DHT22;23682;53.508;10.476;2022-07-24T08:48:07;23.20;95.90
37842;DHT22;23682;53.508;10.476;2022-07-24T08:50:38;23.20;95.40
37842;DHT22;23682;53.508;10.476;2022-07-24T08:53:05;23.40;95.70
37842;DHT22;23682;53.508;10.476;2022-07-24T08:55:33;23.50;95.90
37842;DHT22;23682;53.508;10.476;2022-07-24T08:58:01;23.50;95.70
37842;DHT22;23682;53.508;10.476;2022-07-24T09:00:29;23.60;95.50
37842;DHT22;23682;53.508;10.476;2022-07-24T09:02:57;23.70;95.30
37842;DHT22;23682;53.508;10.476;2022-07-24T09:05:24;23.70;95.00
37842;DHT22;23682;53.508;10.476;2022-07-24T09:08:06;23.70;95.30
37842;DHT22;23682;53.508;10.476;2022-07-24T09:10:33;23.80;94.90
37842;DHT22;23682;53.508;10.476;2022-07-24T09:13:13;23.70;94.60
37842;DHT22;23682;53.508;10.476;2022-07-24T09:15:46;23.80;94.80
37842;DHT22;23682;53.508;10.476;2022-07-24T09:20:54;23.90;94.60
37842;DHT22;23682;53.508;10.476;2022-07-24T09:23:21;23.90;94.10
37842;DHT22;23682;53.508;10.476;2022-07-24T09:25:53;23.90;94.30
37842;DHT22;23682;53.508;10.476;2022-07-24T09:28:21;24.00;94.20
37842;DHT22;23682;53.508;10.476;2022-07-24T09:30:48;24.20;94.40
37842;DHT22;23682;53.508;10.476;2022-07-24T09:33:17;24.30;93.80
37842;DHT22;23682;53.508;10.476;2022-07-24T09:35:50;24.40;93.80
37842;DHT22;23682;53.508;10.476;2022-07-24T09:38:24;24.50;93.90
37842;DHT22;23682;53.508;10.476;2022-07-24T09:40:56;24.60;94.00
37842;DHT22;23682;53.508;10.476;2022-07-24T09:43:33;24.60;93.70
37842;DHT22;23682;53.508;10.476;2022-07-24T09:46:06;24.70;93.90
37842;DHT22;23682;53.508;10.476;2022-07-24T09:51:13;24.70;93.70
37842;DHT22;23682;53.508;10.476;2022-07-24T09:53:41;24.60;94.00
37842;DHT22;23682;53.508;10.476;2022-07-24T09:56:13;24.80;94.10
37842;DHT22;23682;53.508;10.476;2022-07-24T10:01:18;25.00;93.80
37842;DHT22;23682;53.508;10.476;2022-07-24T10:03:48;25.00;93.90
37842;DHT22;23682;53.508;10.476;2022-07-24T10:06:20;25.10;93.80
37842;DHT22;23682;53.508;10.476;2022-07-24T10:08:50;25.20;94.10
37842;DHT22;23682;53.508;10.476;2022-07-24T10:11:18;25.20;93.90
37842;DHT22;23682;53.508;10.476;2022-07-24T10:13:46;25.10;94.10
37842;DHT22;23682;53.508;10.476;2022-07-24T10:21:19;25.30;93.50
37842;DHT22;23682;53.508;10.476;2022-07-24T10:26:46;25.40;93.60
37842;DHT22;23682;53.508;10.476;2022-07-24T10:29:19;25.50;93.30
37842;DHT22;23682;53.508;10.476;2022-07-24T10:31:56;25.50;93.40
37842;DHT22;23682;53.508;10.476;2022-07-24T10:45:33;25.60;93.40
37842;DHT22;23682;53.508;10.476;2022-07-24T10:56:38;25.90;93.30
37842;DHT22;23682;53.508;10.476;2022-07-24T10:59:12;25.90;93.00
37842;DHT22;23682;53.508;10.476;2022-07-24T11:01:44;25.90;92.70
37842;DHT22;23682;53.508;10.476;2022-07-24T11:06:51;26.10;93.10
37842;DHT22;23682;53.508;10.476;2022-07-24T11:09:26;26.10;92.60
37842;DHT22;23682;53.508;10.476;2022-07-24T11:14:26;26.30;93.00
37842;DHT22;23682;53.508;10.476;2022-07-24T11:16:53;26.30;92.20
37842;DHT22;23682;53.508;10.476;2022-07-24T11:22:01;26.20;92.90
37842;DHT22;23682;53.508;10.476;2022-07-24T11:24:28;26.00;93.20
37842;DHT22;23682;53.508;10.476;2022-07-24T11:26:59;26.00;93.00
37842;DHT22;23682;53.508;10.476;2022-07-24T11:32:04;25.90;93.30
37842;DHT22;23682;53.508;10.476;2022-07-24T11:34:37;26.10;93.30
37842;DHT22;23682;53.508;10.476;2022-07-24T11:37:05;26.30;93.10
37842;DHT22;23682;53.508;10.476;2022-07-24T11:39:41;26.50;92.60
37842;DHT22;23682;53.508;10.476;2022-07-24T11:42:10;26.40;92.40
37842;DHT22;23682;53.508;10.476;2022-07-24T11:44:43;26.50;92.90
37842;DHT22;23682;53.508;10.476;2022-07-24T11:49:40;26.60;92.20
37842;DHT22;23682;53.508;10.476;2022-07-24T11:52:23;26.60;92.70
37842;DHT22;23682;53.508;10.476;2022-07-24T11:54:52;26.60;92.50
37842;DHT22;23682;53.508;10.476;2022-07-24T11:57:28;26.70;92.70
37842;DHT22;23682;53.508;10.476;2022-07-24T12:00:21;26.60;92.40
37842;DHT22;23682;53.508;10.476;2022-07-24T12:02:54;26.50;92.50
37842;DHT22;23682;53.508;10.476;2022-07-24T12:05:25;26.60;92.30
37842;DHT22;23682;53.508;10.476;2022-07-24T12:07:52;26.60;92.30
37842;DHT22;23682;53.508;10.476;2022-07-24T12:10:20;26.60;91.70
37842;DHT22;23682;53.508;10.476;2022-07-24T12:12:49;26.60;91.50
37842;DHT22;23682;53.508;10.476;2022-07-24T12:15:17;26.70;91.60
37842;DHT22;23682;53.508;10.476;2022-07-24T12:18:04;26.70;92.10
37842;DHT22;23682;53.508;10.476;2022-07-24T12:23:12;26.80;92.20
37842;DHT22;23682;53.508;10.476;2022-07-24T12:25:40;27.00;91.60
37842;DHT22;23682;53.508;10.476;2022-07-24T12:30:37;27.10;92.00
37842;DHT22;23682;53.508;10.476;2022-07-24T12:33:12;27.20;91.70
37842;DHT22;23682;53.508;10.476;2022-07-24T12:36:17;27.10;91.30
37842;DHT22;23682;53.508;10.476;2022-07-24T12:38:53;27.20;91.10
37842;DHT22;23682;53.508;10.476;2022-07-24T12:41:26;27.30;91.40
37842;DHT22;23682;53.508;10.476;2022-07-24T12:43:57;27.30;91.00
37842;DHT22;23682;53.508;10.476;2022-07-24T12:46:30;27.30;91.30
37842;DHT22;23682;53.508;10.476;2022-07-24T12:54:28;27.70;91.00
37842;DHT22;23682;53.508;10.476;2022-07-24T12:56:58;27.70;91.40
37842;DHT22;23682;53.508;10.476;2022-07-24T13:01:56;27.80;90.50
37842;DHT22;23682;53.508;10.476;2022-07-24T13:04:24;27.90;90.80
37842;DHT22;23682;53.508;10.476;2022-07-24T13:06:59;27.90;90.40
37842;DHT22;23682;53.508;10.476;2022-07-24T13:09:27;27.80;91.00
37842;DHT22;23682;53.508;10.476;2022-07-24T13:11:56;27.80;90.50
37842;DHT22;23682;53.508;10.476;2022-07-24T13:14:24;27.90;90.50
37842;DHT22;23682;53.508;10.476;2022-07-24T13:16:52;28.10;91.00
37842;DHT22;23682;53.508;10.476;2022-07-24T13:19:20;28.10;90.30
37842;DHT22;23682;53.508;10.476;2022-07-24T13:21:47;28.10;90.50
37842;DHT22;23682;53.508;10.476;2022-07-24T13:24:15;28.10;90.30
37842;DHT22;23682;53.508;10.476;2022-07-24T13:26:43;28.20;90.40
37842;DHT22;23682;53.508;10.476;2022-07-24T13:29:10;28.20;90.20
37842;DHT22;23682;53.508;10.476;2022-07-24T13:31:38;28.20;89.90
37842;DHT22;23682;53.508;10.476;2022-07-24T13:34:05;28.10;89.50
37842;DHT22;23682;53.508;10.476;2022-07-24T13:36:36;28.10;89.40
37842;DHT22;23682;53.508;10.476;2022-07-24T13:39:05;28.10;90.10
37842;DHT22;23682;53.508;10.476;2022-07-24T13:41:33;28.10;89.20
37842;DHT22;23682;53.508;10.476;2022-07-24T13:44:00;28.10;90.00
37842;DHT22;23682;53.508;10.476;2022-07-24T13:46:29;28.20;89.60
37842;DHT22;23682;53.508;10.476;2022-07-24T13:48:57;28.40;90.20
37842;DHT22;23682;53.508;10.476;2022-07-24T13:51:25;28.50;90.30
37842;DHT22;23682;53.508;10.476;2022-07-24T13:53:53;28.50;90.30
37842;DHT22;23682;53.508;10.476;2022-07-24T13:56:20;28.40;88.70
37842;DHT22;23682;53.508;10.476;2022-07-24T13:58:49;28.40;88.10
37842;DHT22;23682;53.508;10.476;2022-07-24T14:01:16;28.30;88.80
37842;DHT22;23682;53.508;10.476;2022-07-24T14:04:00;28.40;89.50
37842;DHT22;23682;53.508;10.476;2022-07-24T14:06:48;28.50;89.20
37842;DHT22;23682;53.508;10.476;2022-07-24T14:09:14;28.70;89.90
37842;DHT22;23682;53.508;10.476;2022-07-24T14:11:41;28.70;89.30
37842;DHT22;23682;53.508;10.476;2022-07-24T14:14:08;28.60;87.90
37842;DHT22;23682;53.508;10.476;2022-07-24T14:16:35;28.60;87.50
37842;DHT22;23682;53.508;10.476;2022-07-24T14:19:04;28.60;87.80
37842;DHT22;23682;53.508;10.476;2022-07-24T14:21:32;28.60;87.40
37842;DHT22;23682;53.508;10.476;2022-07-24T14:24:01;28.60;87.50
37842;DHT22;23682;53.508;10.476;2022-07-24T14:26:28;28.40;86.90
37842;DHT22;23682;53.508;10.476;2022-07-24T14:28:55;28.40;87.70
37842;DHT22;23682;53.508;10.476;2022-07-24T14:31:22;28.40;88.30
37842;DHT22;23682;53.508;10.476;2022-07-24T14:33:49;28.40;87.90
37842;DHT22;23682;53.508;10.476;2022-07-24T14:36:15;28.40;88.00
37842;DHT22;23682;53.508;10.476;2022-07-24T14:38:42;28.50;87.30
37842;DHT22;23682;53.508;10.476;2022-07-24T14:41:09;28.40;87.90
37842;DHT22;23682;53.508;10.476;2022-07-24T14:43:36;28.40;87.50
37842;DHT22;23682;53.508;10.476;2022-07-24T14:46:03;28.40;87.20
37842;DHT22;23682;53.508;10.476;2022-07-24T14:48:30;28.50;87.90
37842;DHT22;23682;53.508;10.476;2022-07-24T14:50:56;28.20;86.90
37842;DHT22;23682;53.508;10.476;2022-07-24T14:53:23;28.20;87.80
37842;DHT22;23682;53.508;10.476;2022-07-24T14:55:50;28.30;87.80
37842;DHT22;23682;53.508;10.476;2022-07-24T14:58:17;28.30;87.40
37842;DHT22;23682;53.508;10.476;2022-07-24T15:00:44;28.30;88.10
37842;DHT22;23682;53.508;10.476;2022-07-24T15:03:10;28.40;87.10
37842;DHT22;23682;53.508;10.476;2022-07-24T15:05:37;28.50;87.60
37842;DHT22;23682;53.508;10.476;2022-07-24T15:08:04;28.50;87.10
37842;DHT22;23682;53.508;10.476;2022-07-24T15:10:31;28.50;88.40
37842;DHT22;23682;53.508;10.476;2022-07-24T15:12:58;28.50;88.10
37842;DHT22;23682;53.508;10.476;2022-07-24T15:15:25;28.50;87.50
37842;DHT22;23682;53.508;10.476;2022-07-24T15:17:57;28.40;87.20
37842;DHT22;23682;53.508;10.476;2022-07-24T15:20:24;28.30;87.10
37842;DHT22;23682;53.508;10.476;2022-07-24T15:22:51;28.20;87.30
37842;DHT22;23682;53.508;10.476;2022-07-24T15:25:18;28.40;87.60
37842;DHT22;23682;53.508;10.476;2022-07-24T15:27:45;28.40;87.70
37842;DHT22;23682;53.508;10.476;2022-07-24T15:30:17;28.50;86.90
37842;DHT22;23682;53.508;10.476;2022-07-24T15:32:52;28.40;86.80
37842;DHT22;23682;53.508;10.476;2022-07-24T15:35:19;28.40;87.30
37842;DHT22;23682;53.508;10.476;2022-07-24T15:37:46;28.50;87.30
37842;DHT22;23682;53.508;10.476;2022-07-24T15:40:13;28.50;86.90
37842;DHT22;23682;53.508;10.476;2022-07-24T15:42:39;28.50;88.30
37842;DHT22;23682;53.508;10.476;2022-07-24T15:45:07;28.50;87.00
37842;DHT22;23682;53.508;10.476;2022-07-24T15:47:34;28.50;87.10
37842;DHT22;23682;53.508;10.476;2022-07-24T15:50:00;28.50;87.10
37842;DHT22;23682;53.508;10.476;2022-07-24T15:52:27;28.50;87.60
37842;DHT22;23682;53.508;10.476;2022-07-24T15:54:54;28.50;87.30
37842;DHT22;23682;53.508;10.476;2022-07-24T15:57:23;28.40;87.80
37842;DHT22;23682;53.508;10.476;2022-07-24T15:59:50;28.40;88.00
37842;DHT22;23682;53.508;10.476;2022-07-24T16:02:17;28.40;87.60
37842;DHT22;23682;53.508;10.476;2022-07-24T16:04:44;28.40;87.90
37842;DHT22;23682;53.508;10.476;2022-07-24T16:07:11;28.40;88.30
37842;DHT22;23682;53.508;10.476;2022-07-24T16:09:46;28.40;87.60
37842;DHT22;23682;53.508;10.476;2022-07-24T16:12:13;28.50;87.90
37842;DHT22;23682;53.508;10.476;2022-07-24T16:14:40;28.50;87.20
37842;DHT22;23682;53.508;10.476;2022-07-24T16:17:07;28.50;88.80
37842;DHT22;23682;53.508;10.476;2022-07-24T16:19:34;28.60;87.90
37842;DHT22;23682;53.508;10.476;2022-07-24T16:22:02;28.70;87.70
37842;DHT22;23682;53.508;10.476;2022-07-24T16:24:30;28.70;87.10